Time;durP1;ratioP1;P1;durP2;ratioP2;P2;SDS_P1;SDS_P2;PMS_P1;PMS_P2;Temp;Humidity;BMP_temperature;BMP_pressure;BME280_temperature;BME280_humidity;BME280_pressure;Samples;Min_cycle;Max_cycle;Signal;HPM_P1;HPM_P2
2022/03/14 00:00:39;;;;;;;12.10;8.27;;;10.00;37.90;;;;;;7422956;19;20412;-75
2022/03/14 00:03:08;;;;;;;14.60;9.55;;;10.00;38.00;;;;;;7426655;19;20420;-75
2022/03/14 00:05:38;;;;;;;11.23;8.30;;;10.00;38.40;;;;;;7428819;19;20168;-75
2022/03/14 00:08:13;;;;;;;15.70;9.05;;;10.10;39.10;;;;;;7431659;19;20147;-75
2022/03/14 00:10:49;;;;;;;12.82;10.38;;;10.10;38.70;;;;;;7432323;19;20139;-75
2022/03/14 00:13:22;;;;;;;11.67;8.60;;;10.10;38.40;;;;;;7434737;19;20179;-74
2022/03/14 00:15:52;;;;;;;15.07;9.10;;;10.10;38.00;;;;;;7432385;19;20399;-75
2022/03/14 00:18:22;;;;;;;11.60;8.15;;;10.10;37.50;;;;;;7433987;19;20419;-75
2022/03/14 00:20:51;;;;;;;12.30;9.00;;;10.10;38.00;;;;;;7432387;19;20120;-75
2022/03/14 00:23:26;;;;;;;13.53;8.27;;;10.20;37.80;;;;;;7421284;19;20902;-75
2022/03/14 00:25:56;;;;;;;11.70;8.10;;;10.30;37.90;;;;;;7413761;19;20418;-69
2022/03/14 00:28:26;;;;;;;12.43;8.40;;;;;;;;;;7404632;19;20384;-69
2022/03/14 00:30:56;;;;;;;13.33;8.50;;;;;;;;;;7407926;19;20417;-68
2022/03/14 00:33:26;;;;;;;9.60;7.90;;;;;;;;;;7407394;19;20403;-69
2022/03/14 00:35:56;;;;;;;10.43;8.10;;;;;;;;;;7406173;19;20376;-69
2022/03/14 00:38:29;;;;;;;15.47;10.40;;;;;;;;;;7408061;19;20404;-69
2022/03/14 00:40:59;;;;;;;13.53;9.40;;;;;;;;;;7409551;19;20408;-69
2022/03/14 00:43:29;;;;;;;19.87;10.33;;;;;;;;;;7398062;19;20759;-70
2022/03/14 00:45:59;;;;;;;12.20;9.17;;;;;;;;;;7380510;19;20440;-70
2022/03/14 00:48:32;;;;;;;12.70;8.77;;;;;;;;;;7385177;19;20390;-69
2022/03/14 00:51:02;;;;;;;14.70;9.47;;;;;;;;;;7383681;19;20411;-70
2022/03/14 00:53:34;;;;;;;12.50;9.40;;;;;;;;;;7381944;19;20386;-70
2022/03/14 00:56:05;;;;;;;13.80;8.60;;;;;;;;;;7385168;19;20427;-70
2022/03/14 00:58:35;;;;;;;11.60;8.80;;;;;;;;;;7383111;19;20432;-70
2022/03/14 01:01:10;;;;;;;14.73;9.63;;;;;;;;;;7380820;19;20376;-70
2022/03/14 01:03:39;;;;;;;13.23;7.83;;;;;;;;;;7379453;19;20417;-70
2022/03/14 01:06:09;;;;;;;13.63;9.47;;;;;;;;;;7379285;19;20380;-69
2022/03/14 01:08:43;;;;;;;13.20;9.13;;;;;;;;;;7382221;19;20426;-69
2022/03/14 01:11:13;;;;;;;13.43;9.40;;;;;;;;;;7377309;19;20954;-69
2022/03/14 01:13:44;;;;;;;10.63;8.93;;;;;;;;;;7378535;19;20484;-69
2022/03/14 01:16:13;;;;;;;15.63;9.90;;;;;;;;;;7377656;19;20368;-69
2022/03/14 01:18:43;;;;;;;16.73;10.90;;;;;;;;;;7381470;19;20376;-70
2022/03/14 01:21:13;;;;;;;21.63;11.43;;;;;;;;;;7376573;19;21238;-70
2022/03/14 01:23:46;;;;;;;14.77;10.53;;;;;;;;;;7377509;19;20372;-70
2022/03/14 01:26:17;;;;;;;20.30;12.77;;;;;;;;;;7377111;19;20392;-70
2022/03/14 01:28:48;;;;;;;17.90;12.43;;;;;;;;;;7374589;19;20384;-71
2022/03/14 01:31:18;;;;;;;22.77;12.67;;;;;;;;;;7371065;19;20450;-68
2022/03/14 01:33:48;;;;;;;17.10;12.13;;;;;;;;;;7374068;19;20400;-69
2022/03/14 01:36:18;;;;;;;21.80;14.00;;;;;;;;;;7374930;19;20416;-70
2022/03/14 01:38:53;;;;;;;19.27;12.70;;;;;;;;;;7374479;19;20431;-70
2022/03/14 01:41:23;;;;;;;16.17;12.43;;;;;;;;;;7374344;19;20399;-69
2022/03/14 01:43:55;;;;;;;17.80;12.83;;;;;;;;;;7371693;19;20404;-70
2022/03/14 01:46:25;;;;;;;17.07;13.10;;;;;;;;;;7370156;19;20418;-69
2022/03/14 01:48:55;;;;;;;20.47;13.80;;;;;;;;;;7380934;19;20380;-69
2022/03/14 01:51:29;;;;;;;21.73;13.93;;;;;;;;;;7369256;19;20404;-70
2022/03/14 01:54:01;;;;;;;20.67;13.03;;;;;;;;;;7376853;19;20436;-70
2022/03/14 01:56:31;;;;;;;16.70;12.87;;;;;;;;;;7383900;19;20942;-70
2022/03/14 01:59:01;;;;;;;17.47;13.50;;;;;;;;;;7384179;19;20424;-70
2022/03/14 02:01:31;;;;;;;17.47;12.77;;;;;;;;;;7381793;19;20408;-75
2022/03/14 02:04:00;;;;;;;18.80;12.87;;;;;;;;;;7385173;19;20388;-76
2022/03/14 02:06:35;;;;;;;20.73;13.40;;;;;;;;;;7383288;19;20483;-76
2022/03/14 02:09:09;;;;;;;18.70;13.23;;;;;;;;;;7383090;19;20451;-76
2022/03/14 02:11:39;;;;;;;18.00;13.20;;;;;;;;;;7379178;19;20420;-75
2022/03/14 02:14:09;;;;;;;19.37;13.60;;;;;;;;;;7382867;19;21169;-76
2022/03/14 02:16:40;;;;;;;22.60;15.43;;;;;;;;;;7379138;19;20408;-76
2022/03/14 02:19:10;;;;;;;21.40;15.10;;;;;;;;;;7379727;19;20375;-77
2022/03/14 02:21:45;;;;;;;20.30;14.00;;;;;;;;;;7382645;19;20900;-75
2022/03/14 02:24:18;;;;;;;20.77;14.20;;;;;;;;;;7385431;19;20400;-76
2022/03/14 02:26:47;;;;;;;20.57;14.97;;;;;;;;;;7384099;19;20372;-76
2022/03/14 02:29:18;;;;;;;20.30;14.10;;;;;;;;;;7379240;19;20515;-76
2022/03/14 02:31:57;;;;;;;20.27;14.40;;;;;;;;;;7380397;19;20396;-76
2022/03/14 02:34:27;;;;;;;17.27;13.07;;;;;;;;;;7382175;19;20421;-76
2022/03/14 02:37:02;;;;;;;22.43;15.73;;;;;;;;;;7383306;19;20499;-76
2022/03/14 02:39:32;;;;;;;19.03;13.63;;;;;;;;;;7377000;19;20416;-77
2022/03/14 02:42:02;;;;;;;21.60;14.20;;;;;;;;;;7382172;19;20426;-76
2022/03/14 02:44:32;;;;;;;23.07;14.60;;;;;;;;;;7384268;19;20805;-76
2022/03/14 02:47:04;;;;;;;19.27;12.33;;;;;;;;;;7378812;19;20432;-76
2022/03/14 02:49:34;;;;;;;20.33;14.20;;;;;;;;;;7377633;19;20402;-76
2022/03/14 02:52:07;;;;;;;21.90;13.73;;;;;;;;;;7376184;19;20451;-76
2022/03/14 02:54:40;;;;;;;20.03;13.53;;;;;;;;;;7379293;19;21570;-76
2022/03/14 02:57:10;;;;;;;18.93;13.73;;;;;;;;;;7378776;19;20407;-76
2022/03/14 02:59:42;;;;;;;20.77;13.50;;;;;;;;;;7374525;19;20418;-76
2022/03/14 03:02:12;;;;;;;20.23;13.07;;;;;;;;;;7375650;19;20950;-76
2022/03/14 03:04:41;;;;;;;22.37;12.20;;;;;;;;;;7379135;19;20444;-76
2022/03/14 03:07:14;;;;;;;18.60;12.40;;;;;;;;;;7379739;19;20392;-77
2022/03/14 03:09:43;;;;;;;16.30;11.57;;;;;;;;;;7378541;19;20941;-76
2022/03/14 03:12:14;;;;;;;23.23;13.90;;;;;;;;;;7377882;19;20403;-78
2022/03/14 03:14:46;;;;;;;16.50;11.40;;;;;;;;;;7372299;19;20408;-76
2022/03/14 03:17:16;;;;;;;20.23;13.63;;;;;;;;;;7377816;19;20409;-76
2022/03/14 03:19:45;;;;;;;19.77;13.17;;;;;;;;;;7357886;19;20384;-76
2022/03/14 03:22:20;;;;;;;17.27;10.90;;;;;;;;;;7378773;19;20939;-76
2022/03/14 03:24:52;;;;;;;18.33;11.27;;;;;;;;;;7373058;19;20867;-76
2022/03/14 03:27:22;;;;;;;18.23;11.70;;;;;;;;;;7379515;19;20416;-76
2022/03/14 03:29:51;;;;;;;14.43;11.23;;;;;;;;;;7375626;19;20388;-76
2022/03/14 03:32:21;;;;;;;17.33;12.53;;;;;;;;;;7370564;19;20484;-75
2022/03/14 03:34:53;;;;;;;15.00;10.67;;;;;;;;;;7373775;19;20400;-76
2022/03/14 03:37:25;;;;;;;16.70;11.30;;;;;;;;;;7380553;19;20483;-76
2022/03/14 03:39:55;;;;;;;14.70;9.93;;;;;;;;;;7380028;19;20420;-70
2022/03/14 03:42:24;;;;;;;13.43;9.20;;;;;;;;;;7376018;19;20492;-70
2022/03/14 03:44:54;;;;;;;15.30;9.33;;;;;;;;;;7371437;19;21163;-70
2022/03/14 03:47:24;;;;;;;12.30;8.93;;;;;;;;;;7373497;19;20412;-70
2022/03/14 03:49:53;;;;;;;12.10;8.60;;;;;;;;;;7373340;19;20416;-70
2022/03/14 03:52:26;;;;;;;12.77;9.07;;;;;;;;;;7374592;19;20424;-70
2022/03/14 03:54:55;;;;;;;13.67;9.13;;;;;;;;;;7379781;19;20367;-70
2022/03/14 03:57:25;;;;;;;12.33;7.77;;;;;;;;;;7377602;19;20485;-71
2022/03/14 03:59:57;;;;;;;14.20;9.40;;;;;;;;;;7376572;19;21326;-71
2022/03/14 04:02:27;;;;;;;11.43;9.03;;;;;;;;;;7371079;19;20415;-70
2022/03/14 04:04:58;;;;;;;13.00;8.90;;;;;;;;;;7372683;19;20942;-70
2022/03/14 04:07:31;;;;;;;11.03;7.93;;;;;;;;;;7371614;19;20412;-71
2022/03/14 04:10:00;;;;;;;11.10;7.63;;;;;;;;;;7372346;19;20380;-70
2022/03/14 04:12:30;;;;;;;13.27;8.77;;;;;;;;;;7370896;19;20420;-70
2022/03/14 04:15:04;;;;;;;13.13;8.67;;;;;;;;;;7374211;19;20384;-70
2022/03/14 04:17:35;;;;;;;11.83;8.13;;;;;;;;;;7370160;19;20411;-70
2022/03/14 04:20:08;;;;;;;12.13;8.40;;;;;;;;;;7374533;19;20455;-70
2022/03/14 04:22:41;;;;;;;17.17;10.13;;;;;;;;;;7372046;19;20412;-70
2022/03/14 04:25:13;;;;;;;17.50;9.97;;;;;;;;;;7375246;19;20439;-71
2022/03/14 04:27:43;;;;;;;19.20;12.47;;;;;;;;;;7376440;19;20407;-70
2022/03/14 04:30:13;;;;;;;17.50;12.00;;;;;;;;;;7368518;19;20395;-69
2022/03/14 04:32:43;;;;;;;17.47;12.97;;;;;;;;;;7372540;19;20495;-71
2022/03/14 04:35:12;;;;;;;16.10;12.23;;;;;;;;;;7376328;19;21093;-70
2022/03/14 04:37:45;;;;;;;16.70;11.33;;;;;;;;;;7372023;19;20408;-70
2022/03/14 04:40:16;;;;;;;17.07;12.47;;;;;;;;;;7376774;19;20405;-76
2022/03/14 04:42:45;;;;;;;18.50;12.57;;;;;;;;;;7376840;19;20939;-76
2022/03/14 04:45:15;;;;;;;18.23;11.83;;;;;;;;;;7376249;19;20393;-76
2022/03/14 04:47:47;;;;;;;12.17;8.70;;;;;;;;;;7372307;19;20437;-76
2022/03/14 04:50:16;;;;;;;13.30;8.90;;;;;;;;;;7372448;19;20395;-76
2022/03/14 04:52:54;;;;;;;13.33;8.60;;;;;;;;;;7372127;19;20921;-77
2022/03/14 04:55:23;;;;;;;10.70;7.70;;;;;;;;;;7377139;19;20423;-75
2022/03/14 04:57:53;;;;;;;10.57;7.47;;;;;;;;;;7374099;19;20500;-76
2022/03/14 05:00:24;;;;;;;9.90;6.23;;;;;;;;;;7376814;19;20969;-75
2022/03/14 05:02:54;;;;;;;7.80;5.87;;;;;;;;;;7377803;19;20403;-76
2022/03/14 05:05:24;;;;;;;8.17;5.77;;;;;;;;;;7372530;19;20416;-76
2022/03/14 05:07:56;;;;;;;6.60;4.97;;;;;;;;;;7378344;19;21135;-77
2022/03/14 05:10:28;;;;;;;5.53;3.87;;;;;;;;;;7375086;19;20411;-70
2022/03/14 05:12:58;;;;;;;4.77;3.80;;;;;;;;;;7372820;19;20459;-70
2022/03/14 05:15:28;;;;;;;4.83;3.50;;;;;;;;;;7367495;19;21071;-70
2022/03/14 05:18:01;;;;;;;2.10;1.90;;;;;;;;;;7370286;19;21427;-70
2022/03/14 05:20:30;;;;;;;3.20;2.30;;;;;;;;;;7371762;19;20376;-68
2022/03/14 05:23:03;;;;;;;1.77;1.50;;;;;;;;;;7380449;19;20380;-70
2022/03/14 05:25:35;;;;;;;2.57;1.00;;;;;;;;;;7384612;19;20387;-68
2022/03/14 05:28:05;;;;;;;1.10;0.80;;;;;;;;;;7382933;19;20372;-69
2022/03/14 05:30:35;;;;;;;1.43;1.10;;;;;;;;;;7374595;19;20426;-69
2022/03/14 05:33:04;;;;;;;1.57;0.80;;;;;;;;;;7377569;19;20404;-68
2022/03/14 05:35:34;;;;;;;1.67;1.20;;;;;;;;;;7379711;19;20386;-69
2022/03/14 05:38:06;;;;;;;0.70;0.70;;;;;;;;;;7384264;19;20810;-70
2022/03/14 05:40:36;;;;;;;6.67;1.53;;;;;;;;;;7377653;19;20416;-68
2022/03/14 05:43:08;;;;;;;0.70;0.63;;;;;;;;;;7373663;19;21448;-67
2022/03/14 05:45:40;;;;;;;1.43;0.70;;;;;;;;;;7383353;19;20408;-68
2022/03/14 05:48:12;;;;;;;0.73;0.73;;;;;;;;;;7373672;19;20709;-69
2022/03/14 05:50:42;;;;;;;1.07;0.93;;;;;;;;;;7378526;19;20856;-69
2022/03/14 05:53:14;;;;;;;0.50;0.50;;;;;;;;;;7374982;19;20376;-69
2022/03/14 05:55:44;;;;;;;1.27;0.83;;;;;;;;;;7377055;19;20414;-69
2022/03/14 05:58:13;;;;;;;0.63;0.60;;;;;;;;;;7357482;19;20513;-71
2022/03/14 06:00:44;;;;;;;1.37;0.87;;;;;;;;;;7356881;19;20969;-69
2022/03/14 06:03:14;;;;;;;0.80;0.63;;;;;;;;;;7352146;19;20408;-73
2022/03/14 06:05:44;;;;;;;1.37;0.70;;;;;;;;;;7368058;19;20446;-74
2022/03/14 06:08:16;;;;;;;1.00;0.80;;;;;;;;;;7362239;19;20487;-74
2022/03/14 06:10:47;;;;;;;1.00;0.90;;;;;;;;;;7357507;19;21192;-74
2022/03/14 06:13:17;;;;;;;2.10;1.40;;;;;;;;;;7364955;19;20595;-74
2022/03/14 06:15:49;;;;;;;4.47;3.00;;;;;;;;;;7370760;19;20420;-74
2022/03/14 06:18:19;;;;;;;1.20;0.70;;;;;;;;;;7356478;19;20500;-74
2022/03/14 06:20:51;;;;;;;1.80;0.80;;;;;;;;;;7386625;19;20759;-77
2022/03/14 06:23:23;;;;;;;1.17;0.70;;;;;;;;;;7394023;19;20913;-77
2022/03/14 06:25:54;;;;;;;3.03;0.73;;;;;;;;;;7393250;19;20370;-76
2022/03/14 06:28:24;;;;;;;2.60;0.87;;;;;;;;;;7393393;19;20413;-76
2022/03/14 06:30:54;;;;;;;1.00;0.70;;;;;;;;;;7401486;19;20388;-75
2022/03/14 06:33:23;;;;;;;4.80;1.30;;;;;;;;;;7395338;19;20413;-75
2022/03/14 06:35:54;;;;;;;1.10;0.70;;;;;;;;;;7395927;19;21095;-76
2022/03/14 06:38:29;;;;;;;1.73;0.70;;;;;;;;;;7401275;19;20409;-76
2022/03/14 06:40:59;;;;;;;1.47;0.90;;;;;;;;;;7397502;19;20425;-76
2022/03/14 06:43:29;;;;;;;0.90;0.57;;;;;;;;;;7404739;19;20405;-75
2022/03/14 06:45:58;;;;;;;0.93;0.80;;;;;;;;;;7396750;19;20420;-75
2022/03/14 06:48:28;;;;;;;1.00;0.90;;;;;;;;;;7393346;19;20377;-73
2022/03/14 06:50:58;;;;;;;3.43;1.10;;;;;;;;;;7400771;19;20393;-76
2022/03/14 06:53:30;;;;;;;2.70;1.50;;;;;;;;;;7405039;19;20440;-75
2022/03/14 06:56:00;;;;;;;0.83;0.60;;;;;;;;;;7401709;19;20420;-78
2022/03/14 06:58:30;;;;;;;1.83;0.83;;;;;;;;;;7418954;19;20395;-78
2022/03/14 07:01:00;;;;;;;3.37;0.70;;;;;;;;;;7420631;19;20420;-78
2022/03/14 07:03:30;;;;;;;1.00;0.90;;;;;;;;;;7418548;19;20368;-79
2022/03/14 07:05:59;;;;;;;1.23;0.87;;;;;;;;;;7420587;19;20381;-78
2022/03/14 07:08:32;;;;;;;1.10;0.80;;;;;;;;;;7421337;19;20372;-79
2022/03/14 07:11:02;;;;;;;1.10;0.83;;;;;;;;;;7422123;19;20440;-79
2022/03/14 07:13:31;;;;;;;0.93;0.73;;;;;;;;;;7423223;19;20406;-78
2022/03/14 07:16:03;;;;;;;0.80;0.60;;;;;;;;;;7424064;19;20408;-78
2022/03/14 07:18:34;;;;;;;3.87;0.93;;;;;;;;;;7419827;19;20400;-78
2022/03/14 07:21:03;;;;;;;1.40;0.90;;;;;;;;;;7415615;19;20405;-78
2022/03/14 07:23:37;;;;;;;1.73;0.60;;;;;;;;;;7419001;19;20411;-79
2022/03/14 07:26:06;;;;;;;1.63;0.80;;;;;;;;;;7420884;19;20369;-78
2022/03/14 07:28:36;;;;;;;1.40;0.70;;;;;;;;;;7418540;19;20356;-79
2022/03/14 07:31:06;;;;;;;1.70;0.60;;;;;;;;;;7390339;19;20413;-75
2022/03/14 07:33:35;;;;;;;1.70;0.70;;;;;;;;;;7382147;19;20388;-77
2022/03/14 07:36:07;;;;;;;1.80;0.50;;;;;;;;;;7380831;19;21046;-76
2022/03/14 07:38:40;;;;;;;1.10;0.70;;;;;;;;;;7379616;19;20408;-77
2022/03/14 07:41:13;;;;;;;1.73;0.80;;;;;;;;;;7382537;19;20422;-75
2022/03/14 07:43:43;;;;;;;1.33;0.87;;;;;;;;;;7379600;19;20392;-76
2022/03/14 07:46:12;;;;;;;0.50;0.47;;;;;;;;;;7376510;19;20993;-75
2022/03/14 07:48:42;;;;;;;1.90;0.63;;;;;;;;;;7372398;19;20419;-76
2022/03/14 07:51:14;;;;;;;6.43;0.73;;;;;;;;;;7379695;19;20433;-76
2022/03/14 07:53:46;;;;;;;2.40;0.90;;;;;;;;;;7376579;19;20416;-75
2022/03/14 07:56:16;;;;;;;4.43;1.27;;;;;;;;;;7380299;19;20396;-76
2022/03/14 07:58:47;;;;;;;1.43;0.70;;;;;;;;;;7374305;19;21365;-76
2022/03/14 08:01:17;;;;;;;2.73;0.70;;;;;;;;;;7381473;19;20596;-75
2022/03/14 08:03:47;;;;;;;0.60;0.60;;;;;;;;;;7383873;19;20395;-75
2022/03/14 08:06:18;;;;;;;1.70;0.50;;;;;;;;;;7383090;19;20413;-75
2022/03/14 08:08:50;;;;;;;2.73;0.80;;;;;;;;;;7381827;19;20435;-75
2022/03/14 08:11:23;;;;;;;3.77;2.70;;;;;;;;;;7383736;19;20395;-77
2022/03/14 08:13:53;;;;;;;1.80;0.97;;;;;;;;;;7381740;19;20958;-75
2022/03/14 08:16:22;;;;;;;1.53;0.80;;;;;;;;;;7381069;19;20479;-75
2022/03/14 08:18:53;;;;;;;1.80;0.73;;;;;;;;;;7377429;19;20431;-75
2022/03/14 08:21:23;;;;;;;1.33;0.87;;;;;;;;;;7374290;19;20412;-76
2022/03/14 08:23:55;;;;;;;1.40;1.00;;;;;;;;;;7384069;19;20927;-74
2022/03/14 08:26:24;;;;;;;1.00;0.70;;;;;;;;;;7377094;19;20447;-74
2022/03/14 08:28:54;;;;;;;1.20;1.10;;;;;;;;;;7377396;19;20412;-75
2022/03/14 08:31:26;;;;;;;4.10;1.03;;;;;;;;;;7381067;19;21253;-74
2022/03/14 08:33:56;;;;;;;3.07;1.03;;;;;;;;;;7376734;19;20416;-77
2022/03/14 08:36:25;;;;;;;1.73;0.80;;;;;;;;;;7364823;19;20400;-76
2022/03/14 08:39:00;;;;;;;2.73;1.07;;;;;;;;;;7371744;19;20442;-75
2022/03/14 08:41:34;;;;;;;2.70;1.20;;;;;;;;;;7365471;19;20977;-79
2022/03/14 08:44:04;;;;;;;1.80;1.07;;;;;;;;;;7370906;19;22200;-78
2022/03/14 08:46:34;;;;;;;1.60;0.90;;;;;;;;;;7359970;19;20444;-76
2022/03/14 08:49:06;;;;;;;3.77;1.00;;;;;;;;;;7354388;19;20437;-70
2022/03/14 08:51:40;;;;;;;4.10;1.40;;;;;;;;;;7363331;19;20407;-72
2022/03/14 08:54:12;;;;;;;1.73;0.90;;;;;;;;;;7367747;19;20415;-70
2022/03/14 08:56:42;;;;;;;5.43;1.87;;;;;;;;;;7371914;19;20407;-72
2022/03/14 08:59:15;;;;;;;1.73;0.90;;;;;;;;;;7368253;19;20412;-70
2022/03/14 09:01:45;;;;;;;5.00;1.13;;;;;;;;;;7364362;19;20431;-69
2022/03/14 09:04:14;;;;;;;2.00;0.90;;;;;;;;;;7365983;19;20738;-68
2022/03/14 09:06:44;;;;;;;2.20;1.13;;;;;;;;;;7361873;19;22433;-67
2022/03/14 09:09:18;;;;;;;2.77;1.20;;;;;;;;;;7361315;19;20420;-68
2022/03/14 09:11:52;;;;;;;8.60;1.23;;;;;;;;;;7375406;19;20946;-71
2022/03/14 09:14:21;;;;;;;6.33;1.10;;;;;;;;;;7369917;19;20746;-71
2022/03/14 09:16:51;;;;;;;2.20;0.70;;;;;;;;;;7376884;19;20396;-71
2022/03/14 09:19:21;;;;;;;1.63;0.80;;;;;;;;;;7378519;19;20385;-71
2022/03/14 09:21:52;;;;;;;3.23;1.00;;;;;;;;;;7368299;19;20403;-71
2022/03/14 09:24:26;;;;;;;3.90;1.10;;;;;;;;;;7368806;19;20422;-71
2022/03/14 09:27:00;;;;;;;2.40;0.73;;;;;;;;;;7372022;19;20431;-71
2022/03/14 09:29:30;;;;;;;1.80;0.70;;;;;;;;;;7373101;19;20503;-72
2022/03/14 09:31:59;;;;;;;6.80;1.80;;;;;;;;;;7371926;19;20420;-72
2022/03/14 09:34:35;;;;;;;1.70;0.73;;;;;;;;;;7367598;19;20438;-72
2022/03/14 09:37:04;;;;;;;1.50;0.90;;;;;;;;;;7375551;19;20475;-72
2022/03/14 09:39:36;;;;;;;1.90;0.83;;;;;;;;;;7368561;19;21024;-71
2022/03/14 09:42:07;;;;;;;1.87;0.90;;;;;;;;;;7371621;19;20424;-71
2022/03/14 09:44:37;;;;;;;2.57;1.03;;;;;;;;;;7371701;19;20400;-71
2022/03/14 09:47:07;;;;;;;2.37;1.10;;;;;;;;;;7370070;19;20424;-71
2022/03/14 09:49:38;;;;;;;4.20;1.00;;;;;;;;;;7374252;19;20384;-71
2022/03/14 09:52:09;;;;;;;7.57;1.13;;;;;;;;;;7367732;19;20411;-71
2022/03/14 09:54:41;;;;;;;2.00;1.13;;;;;;;;;;7362778;19;20412;-71
2022/03/14 09:57:12;;;;;;;2.30;1.00;;;;;;;;;;7371977;19;20747;-71
2022/03/14 09:59:42;;;;;;;1.70;0.80;;;;;;;;;;7371608;19;20404;-71
2022/03/14 10:02:13;;;;;;;2.50;1.00;;;;;;;;;;7373815;19;20380;-72
2022/03/14 10:04:42;;;;;;;2.63;1.00;;;;;;;;;;7371680;19;20381;-73
2022/03/14 10:07:16;;;;;;;2.10;1.03;;;;;;;;;;7370985;19;20523;-78
2022/03/14 10:09:51;;;;;;;3.70;1.03;;;;;;;;;;7372616;19;20373;-76
2022/03/14 10:12:21;;;;;;;1.50;0.70;;;;;;;;;;7378659;19;20419;-76
2022/03/14 10:14:53;;;;;;;2.10;0.73;;;;;;;;;;7378445;19;20402;-74
2022/03/14 10:17:23;;;;;;;1.67;1.00;;;;;;;;;;7382215;19;20408;-74
2022/03/14 10:19:56;;;;;;;2.50;1.30;;;;;;;;;;7382195;19;20368;-75
2022/03/14 10:22:26;;;;;;;2.90;1.00;;;;;;;;;;7382951;19;20412;-75
2022/03/14 10:25:06;;;;;;;2.00;1.00;;;;;;;;;;7383867;19;20462;-75
2022/03/14 10:27:37;;;;;;;2.70;1.00;;;;;;;;;;7382073;19;20404;-75
2022/03/14 10:30:08;;;;;;;3.47;1.10;;;;;;;;;;7379134;19;20388;-75
2022/03/14 10:32:39;;;;;;;1.47;0.60;;;;;;;;;;7381344;19;20924;-75
2022/03/14 10:35:10;;;;;;;1.80;0.93;;;;;;;;;;7386465;19;20420;-75
2022/03/14 10:37:40;;;;;;;2.17;0.97;;;;;;;;;;7387220;19;20376;-75
2022/03/14 10:40:15;;;;;;;2.20;1.20;;;;;;;;;;7382966;19;20919;-74
2022/03/14 10:42:45;;;;;;;2.37;1.10;;;;;;;;;;7383453;19;21102;-76
2022/03/14 10:45:15;;;;;;;2.23;0.80;;;;;;;;;;7382429;19;20752;-75
2022/03/14 10:47:49;;;;;;;2.23;0.80;;;;;;;;;;7382546;19;20427;-75
2022/03/14 10:50:33;;;;;;;2.30;0.67;;;;;;;;;;7382030;19;20412;-75
2022/03/14 10:53:06;;;;;;;3.10;1.27;;;;;;;;;;7385019;19;20415;-74
2022/03/14 10:55:45;;;;;;;3.87;1.33;;;;;;;;;;7390531;19;20384;-75
2022/03/14 10:58:16;;;;;;;3.80;0.73;;;;;;;;;;7396000;19;20988;-75
2022/03/14 11:00:54;;;;;;;2.77;0.90;;;10.40;38.50;;;;;;7396629;19;20424;-75
2022/03/14 11:03:25;;;;;;;3.87;1.10;;;34.30;16.30;;;;;;7398384;19;20404;-75
2022/03/14 11:05:58;;;;;;;2.80;1.10;;;33.60;16.90;;;;;;7402058;19;21094;-75
2022/03/14 11:08:36;;;;;;;2.53;0.80;;;32.80;17.00;;;;;;7395483;19;20412;-75
2022/03/14 11:11:10;;;;;;;2.20;0.70;;;34.00;16.80;;;;;;7387111;19;20402;-75
2022/03/14 11:13:42;;;;;;;2.73;0.93;;;34.70;16.10;;;;;;7383341;19;20902;-74
2022/03/14 11:16:15;;;;;;;3.40;1.33;;;33.30;16.30;;;;;;7382774;19;20891;-75
2022/03/14 11:18:46;;;;;;;3.23;0.97;;;32.40;17.60;;;;;;7383761;19;20417;-75
2022/03/14 11:21:16;;;;;;;2.47;0.90;;;32.30;17.50;;;;;;7379954;19;20443;-75
2022/03/14 11:23:49;;;;;;;1.73;0.80;;;33.90;16.70;;;;;;7378141;19;20420;-75
2022/03/14 11:26:23;;;;;;;2.30;0.87;;;34.90;16.30;;;;;;7378283;19;20415;-74
2022/03/14 11:28:56;;;;;;;1.67;0.83;;;35.60;15.80;;;;;;7373214;19;20415;-75
2022/03/14 11:31:28;;;;;;;3.40;1.00;;;35.40;15.60;;;;;;7374954;19;21020;-75
2022/03/14 11:33:59;;;;;;;3.80;1.20;;;35.80;15.40;;;;;;7377090;19;20396;-75
2022/03/14 11:36:31;;;;;;;2.00;0.87;;;35.00;15.80;;;;;;7379180;19;20458;-75
2022/03/14 11:39:01;;;;;;;1.70;0.87;;;35.70;16.00;;;;;;7376744;19;20935;-75
2022/03/14 11:41:33;;;;;;;2.70;1.50;;;36.20;15.40;;;;;;7377892;19;20753;-74
2022/03/14 11:44:03;;;;;;;0.90;0.77;;;36.40;14.90;;;;;;7381369;19;20400;-75
2022/03/14 11:46:35;;;;;;;2.20;1.50;;;36.90;14.70;;;;;;7377065;19;20445;-75
2022/03/14 11:49:14;;;;;;;1.80;0.80;;;36.70;14.80;;;;;;7373326;19;20400;-73
2022/03/14 11:51:47;;;;;;;4.80;1.10;;;36.60;15.00;;;;;;7373926;19;20391;-74
2022/03/14 11:54:18;;;;;;;1.77;0.80;;;33.70;16.50;;;;;;7375054;19;20376;-73
2022/03/14 11:57:00;;;;;;;5.40;1.43;;;33.90;16.90;;;;;;7375537;19;20376;-72
2022/03/14 11:59:31;;;;;;;2.23;0.80;;;35.90;15.80;;;;;;7372647;19;20423;-73
2022/03/14 12:02:05;;;;;;;1.77;0.83;;;35.00;15.80;;;;;;7377238;19;20380;-73
2022/03/14 12:04:36;;;;;;;2.43;1.10;;;35.50;15.70;;;;;;7375405;19;20501;-73
2022/03/14 12:07:11;;;;;;;2.10;0.70;;;36.10;15.70;;;;;;7376151;19;20456;-73
2022/03/14 12:09:49;;;;;;;1.40;0.80;;;35.00;15.90;;;;;;7377834;19;20412;-73
2022/03/14 12:12:32;;;;;;;3.10;0.90;;;33.00;17.10;;;;;;7374441;19;20404;-72
2022/03/14 12:15:05;;;;;;;2.90;1.37;;;33.60;17.10;;;;;;7376678;19;21159;-73
2022/03/14 12:17:37;;;;;;;1.50;0.80;;;35.30;16.20;;;;;;7377697;19;20381;-73
2022/03/14 12:20:14;;;;;;;2.10;1.00;;;36.50;15.30;;;;;;7377968;19;20403;-73
2022/03/14 12:22:47;;;;;;;1.93;0.87;;;37.70;14.90;;;;;;7377124;19;20360;-73
2022/03/14 12:25:49;;;;;;;2.57;0.90;;;36.80;14.40;;;;;;7371629;19;20421;-72
2022/03/14 12:28:36;;;;;;;1.90;1.03;;;34.00;16.60;;;;;;7374444;19;20424;-73
2022/03/14 12:31:16;;;;;;;4.63;1.10;;;33.20;17.80;;;;;;7372649;19;21061;-73
2022/03/14 12:33:49;;;;;;;2.10;0.83;;;35.20;16.20;;;;;;7373649;19;20423;-75
2022/03/14 12:36:42;;;;;;;2.57;0.90;;;31.00;17.50;;;;;;7372042;19;20785;-74
2022/03/14 12:39:28;;;;;;;2.30;0.80;;;30.70;19.60;;;;;;7369626;19;20392;-76
2022/03/14 12:42:22;;;;;;;2.40;1.27;;;32.20;17.50;;;;;;7366845;19;20420;-73
2022/03/14 12:45:23;;;;;;;2.77;0.80;;;31.40;17.80;;;;;;7383262;19;20384;-73
2022/03/14 12:47:57;;;;;;;2.93;0.87;;;32.40;18.50;;;;;;7381429;19;20946;-74
2022/03/14 12:50:47;;;;;;;3.30;0.90;;;34.90;17.00;;;;;;7385207;19;20419;-71
2022/03/14 12:53:19;;;;;;;3.00;0.80;;;36.70;15.80;;;;;;7383855;19;20442;-72
2022/03/14 12:55:52;;;;;;;1.20;0.73;;;37.40;14.80;;;;;;7383877;19;20393;-72
2022/03/14 12:58:23;;;;;;;3.50;0.80;;;37.00;15.40;;;;;;7384500;19;20404;-71
2022/03/14 13:00:58;;;;;;;3.20;1.10;;;37.00;15.20;;;;;;7382580;19;20372;-72
2022/03/14 13:03:34;;;;;;;3.90;1.20;;;34.60;16.20;;;;;;7378418;19;20866;-72
2022/03/14 13:06:08;;;;;;;2.40;0.80;;;36.20;16.30;;;;;;7384464;19;20971;-71
2022/03/14 13:08:48;;;;;;;2.40;1.13;;;37.50;15.40;;;;;;7377561;19;20387;-74
2022/03/14 13:11:20;;;;;;;2.80;1.30;;;35.30;15.50;;;;;;7376879;19;20955;-74
2022/03/14 13:13:50;;;;;;;3.30;1.20;;;34.20;17.20;;;;;;7377742;19;20444;-72
2022/03/14 13:16:28;;;;;;;1.57;0.90;;;33.20;16.90;;;;;;7378136;19;20400;-71
2022/03/14 13:18:59;;;;;;;3.00;0.80;;;31.70;17.60;;;;;;7354798;19;21531;-72
2022/03/14 13:21:32;;;;;;;1.83;0.80;;;30.40;18.30;;;;;;7381204;19;20368;-71
2022/03/14 13:24:06;;;;;;;1.27;0.87;;;30.60;19.80;;;;;;7381171;19;20392;-71
2022/03/14 13:26:37;;;;;;;3.37;1.40;;;32.80;18.20;;;;;;7382152;19;20404;-72
2022/03/14 13:29:08;;;;;;;3.13;0.90;;;33.30;17.70;;;;;;7379098;19;20438;-71
2022/03/14 13:31:42;;;;;;;1.77;0.90;;;32.90;17.40;;;;;;7384452;19;20420;-72
2022/03/14 13:34:16;;;;;;;2.83;1.03;;;32.50;17.70;;;;;;7379283;19;20408;-72
2022/03/14 13:36:52;;;;;;;2.17;0.80;;;33.10;17.40;;;;;;7383060;19;20415;-71
2022/03/14 13:39:24;;;;;;;1.77;1.10;;;34.00;17.40;;;;;;7385741;19;20400;-71
2022/03/14 13:41:57;;;;;;;4.70;0.90;;;34.30;16.90;;;;;;7381625;19;20396;-71
2022/03/14 13:44:29;;;;;;;1.30;0.70;;;33.50;17.30;;;;;;7384528;19;20372;-71
2022/03/14 13:47:02;;;;;;;1.90;1.20;;;30.40;18.30;;;;;;7382300;19;20435;-72
2022/03/14 13:49:32;;;;;;;3.63;0.97;;;30.50;19.40;;;;;;7387732;19;20468;-72
2022/03/14 13:52:05;;;;;;;2.17;0.83;;;31.10;19.30;;;;;;7384280;19;20413;-72
2022/03/14 13:54:39;;;;;;;4.03;1.10;;;31.90;19.40;;;;;;7381860;19;20412;-72
2022/03/14 13:57:14;;;;;;;2.30;1.00;;;32.10;18.70;;;;;;7382646;19;20495;-72
2022/03/14 13:59:47;;;;;;;2.30;0.80;;;30.70;19.30;;;;;;7383445;19;20372;-72
2022/03/14 14:02:22;;;;;;;2.40;1.00;;;30.40;20.00;;;;;;7382979;19;20408;-78
2022/03/14 14:04:53;;;;;;;2.00;1.17;;;30.70;19.70;;;;;;7386073;19;21059;-73
2022/03/14 14:07:25;;;;;;;3.37;1.10;;;30.60;19.90;;;;;;7379817;19;20392;-73
2022/03/14 14:09:55;;;;;;;2.30;1.10;;;30.70;19.80;;;;;;7372787;19;20384;-73
2022/03/14 14:12:29;;;;;;;2.17;1.03;;;30.60;19.70;;;;;;7380971;19;20423;-73
2022/03/14 14:15:00;;;;;;;2.63;1.10;;;30.20;19.80;;;;;;7382810;19;20373;-73
2022/03/14 14:17:37;;;;;;;3.00;1.23;;;30.00;19.90;;;;;;7380940;19;20491;-73
2022/03/14 14:20:17;;;;;;;3.03;1.20;;;29.80;20.10;;;;;;7381480;19;20395;-73
2022/03/14 14:22:48;;;;;;;2.73;1.47;;;29.70;20.00;;;;;;7378507;19;20400;-73
2022/03/14 14:25:26;;;;;;;9.87;1.57;;;28.10;20.90;;;;;;7378066;19;20407;-73
2022/03/14 14:27:59;;;;;;;3.67;1.60;;;27.10;22.00;;;;;;7379615;19;21031;-73